Pagrindinis puslapis
METAR-TAF:

METAR-TAF

Oro uostai :

Šidzuoka, Japonija

platuma: 34-47-46N, ilguma: 138-11-22E, Aukštis: 132 m

Dabartinis oras

Ataskaita buvo paskelbta 46 minutes, ne 12:00 UTC
Vėjas 4 kt iš Šiaurės
Temperatūra 8°C
Drėgmė 81%
Slėgis 1025 hPa
Matomumas 10 km arba daugiau
Mažai debesys ne aukštis 2000 ft
Išsisklaidę debesys ne aukštis 4500 ft
Su prošvaistėmis

METAR: RJNS 131200Z 36004KT 9999 FEW020 SCT045 BKN/// 08/05 Q1025

Laikas: 21:46 (12:46 UTC)

Prognozė

Ataskaita buvo paskelbta 1 valandą ir 41 minutes, ne 11:05 UTC
Prognozė galioja nuo 13 metu 12 UTC su 14 metu 18 UTC
Vėjas 4 kt iš Šiaurės/Šiaurės Vakarų
Matomumas 10 km arba daugiau
Mažai debesys ne aukštis 2000 ft
Tapsmas
nuo 14 metu 00 UTC su 14 metu 03 UTC
Vėjas 16 kt iš Vakarų
Laikinai
nuo 14 metu 03 UTC su 14 metu 09 UTC
Vėjas 20 kt iš Vakarų su gūsio iki 30 kt

TAF: RJNS 131105Z 1312/1418 34004KT 9999 FEW020 BECMG 1400/1403 26016KT TEMPO 1403/1409 26020G30KT

Orai ataskaitas ir orų prognozės (METAR, TAF).

turimą stotys yra geltonos ir raudonos taškus žemėlapyje.

Perkelti pele per norėdami pamatyti stoties vardą.

Tada spustelėkite, norėdami matyti oro stebėjimo ir prognozės.

Norėdami pakeisti žemėlapį: spustelėkite ant žalios mygtukų su juodo kryžiaus žemyn,; žalią mygtuką su brūkšneliu, jei norite nutolinti; arba žalių rodyklių gretimoms žemėlapius.


METAR-TAF: